createdAt,value
2023-05-12T00:00:41.746Z,93526.66
2023-05-12T00:05:43.350Z,93530.84
2023-05-12T00:10:46.363Z,93520.94
2023-05-12T00:15:47.948Z,93523.59
2023-05-12T00:20:49.500Z,93506.66
2023-05-12T00:25:55.085Z,93512.00
2023-05-12T00:30:56.825Z,93505.84
2023-05-12T00:36:00.525Z,93497.19
2023-05-12T00:41:03.560Z,93501.59
2023-05-12T00:46:06.011Z,93499.03
2023-05-12T00:51:08.852Z,93487.06
2023-05-12T00:56:13.320Z,93490.56
2023-05-12T01:01:15.175Z,93490.44
2023-05-12T01:06:23.858Z,93486.34
2023-05-12T01:11:29.616Z,93487.06
2023-05-12T01:16:35.883Z,93494.59
2023-05-12T01:21:37.906Z,93487.84
2023-05-12T01:26:40.904Z,93474.06
2023-05-12T01:31:43.115Z,93481.06
2023-05-12T01:36:44.920Z,93480.88
2023-05-12T01:41:50.472Z,93489.75
2023-05-12T01:46:52.129Z,93495.66
2023-05-12T01:51:53.710Z,93492.59
2023-05-12T01:56:59.790Z,93495.59
2023-05-12T02:02:01.453Z,93493.97
2023-05-12T02:07:03.261Z,93487.28
2023-05-12T02:12:07.240Z,93484.53
2023-05-12T02:17:08.824Z,93488.03
2023-05-12T02:22:10.438Z,93478.91
2023-05-12T02:27:13.495Z,93478.09
2023-05-12T02:32:15.094Z,93477.66
2023-05-12T02:37:16.841Z,93484.00
2023-05-12T02:42:24.159Z,93485.25
2023-05-12T02:47:25.767Z,93483.66
2023-05-12T02:52:28.696Z,93480.03
2023-05-12T02:57:31.654Z,93475.25
2023-05-12T03:02:33.379Z,93476.91
2023-05-12T03:07:35.240Z,93469.63
2023-05-12T03:12:40.342Z,93469.41
2023-05-12T03:17:42.360Z,93473.09
2023-05-12T03:22:44.099Z,93464.78
2023-05-12T03:27:49.493Z,93462.09
2023-05-12T03:32:51.180Z,93474.22
2023-05-12T03:37:52.725Z,93471.34
2023-05-12T03:42:55.672Z,93468.25
2023-05-12T03:47:57.372Z,93463.81
2023-05-12T03:52:58.920Z,93469.69
2023-05-12T03:58:01.884Z,93462.31
2023-05-12T04:03:03.669Z,93463.19
2023-05-12T04:08:05.856Z,93464.94
2023-05-12T04:13:08.929Z,93462.78
2023-05-12T04:18:10.487Z,93466.81
2023-05-12T04:23:12.119Z,93471.91
2023-05-12T04:28:19.670Z,93477.22
2023-05-12T04:38:36.741Z,93474.34
2023-05-12T04:49:01.335Z,93478.94
2023-05-12T04:54:04.263Z,93478.00
2023-05-12T04:59:07.269Z,93475.38
2023-05-12T05:04:10.136Z,93482.88
2023-05-12T05:09:14.050Z,93488.31
2023-05-12T05:14:17.078Z,93491.16
2023-05-12T05:19:23.376Z,93497.69
2023-05-12T05:24:37.355Z,93489.38
2023-05-12T05:29:42.615Z,93502.81
2023-05-12T05:34:45.558Z,93506.53
2023-05-12T05:39:48.180Z,93513.66
2023-05-12T05:44:51.178Z,93505.97
2023-05-12T05:49:52.834Z,93518.84
2023-05-12T05:54:54.459Z,93511.59
2023-05-12T05:59:57.484Z,93511.84
2023-05-12T06:05:01.824Z,93514.50
2023-05-12T06:10:03.888Z,93520.03
2023-05-12T06:15:08.292Z,93521.00
2023-05-12T06:20:10.527Z,93522.91
2023-05-12T06:25:15.505Z,93520.25
2023-05-12T06:30:18.667Z,93526.16
2023-05-12T06:35:21.972Z,93524.28
2023-05-12T06:40:23.746Z,93522.94
2023-05-12T06:45:26.707Z,93520.13
2023-05-12T06:50:28.288Z,93520.72
2023-05-12T06:55:32.256Z,93512.69
2023-05-12T07:00:35.222Z,93511.03
2023-05-12T07:05:36.953Z,93514.66
2023-05-12T07:10:38.593Z,93514.09
2023-05-12T07:15:41.643Z,93509.59
2023-05-12T07:20:45.995Z,93514.66
2023-05-12T07:25:47.713Z,93512.44
2023-05-12T07:30:53.928Z,93509.38
2023-05-12T07:35:55.511Z,93513.66
2023-05-12T07:40:57.177Z,93511.59
2023-05-12T07:46:02.410Z,93508.13
2023-05-12T07:51:04.400Z,93513.13
2023-05-12T07:56:07.668Z,93517.03
2023-05-12T08:01:13.161Z,93515.34
2023-05-12T08:06:14.733Z,93514.31
2023-05-12T08:11:16.314Z,93518.00
2023-05-12T08:16:19.296Z,93521.34
2023-05-12T08:21:28.070Z,93513.16
2023-05-12T08:26:35.304Z,93513.94
2023-05-12T08:31:39.524Z,93512.72
2023-05-12T08:36:41.387Z,93512.56
2023-05-12T08:41:45.222Z,93523.47
2023-05-12T08:46:48.915Z,93526.56
2023-05-12T08:51:58.124Z,93520.09
2023-05-12T09:02:09.414Z,93521.03
2023-05-12T09:07:14.018Z,93520.88
2023-05-12T09:12:19.695Z,93524.56
2023-05-12T09:17:25.315Z,93529.09
2023-05-12T09:22:30.290Z,93527.34
2023-05-12T09:27:34.325Z,93529.97
2023-05-12T09:32:39.696Z,93538.03
2023-05-12T09:37:41.396Z,93527.16
2023-05-12T09:42:43.130Z,93529.03
2023-05-12T09:47:46.234Z,93537.47
2023-05-12T09:52:50.327Z,93536.19
2023-05-12T09:57:54.289Z,93533.53
2023-05-12T10:03:02.722Z,93518.03
2023-05-12T10:08:07.364Z,93519.22
2023-05-12T10:13:09.386Z,93523.19
2023-05-12T10:18:12.854Z,93524.59
2023-05-12T10:23:17.607Z,93520.53
2023-05-12T10:28:22.267Z,93523.06
2023-05-12T10:33:27.471Z,93524.47
2023-05-12T10:38:36.234Z,93519.13
2023-05-12T10:43:40.259Z,93525.34
2023-05-12T10:48:54.709Z,93513.69
2023-05-12T10:53:57.475Z,93520.59
2023-05-12T10:59:14.765Z,93527.25
2023-05-12T11:04:20.549Z,93523.59
2023-05-12T11:09:24.674Z,93531.13
2023-05-12T11:14:29.268Z,93523.66
2023-05-12T11:19:34.497Z,93529.44
2023-05-12T11:24:40.066Z,93535.75
2023-05-12T11:29:42.572Z,93529.88
2023-05-12T11:34:45.619Z,93527.50
2023-05-12T11:39:54.343Z,93527.84
2023-05-12T11:44:55.983Z,93534.16
2023-05-12T11:50:06.091Z,93537.00
2023-05-12T11:55:09.392Z,93536.59
2023-05-12T12:00:12.422Z,93534.97
2023-05-12T12:05:55.104Z,93539.44
2023-05-12T12:10:58.186Z,93544.94
2023-05-12T12:15:59.814Z,93556.59
2023-05-12T12:21:01.588Z,93554.59
2023-05-12T12:26:06.762Z,93554.63
2023-05-12T12:31:08.506Z,93566.44
2023-05-12T12:36:10.289Z,93568.19
2023-05-12T12:41:13.208Z,93573.47
2023-05-12T12:46:14.919Z,93571.28
2023-05-12T12:51:16.788Z,93575.81
2023-05-12T12:56:27.180Z,93577.84
2023-05-12T13:01:28.817Z,93578.25
2023-05-12T13:06:30.465Z,93582.22
2023-05-12T13:11:33.398Z,93581.44
2023-05-12T13:16:35.000Z,93587.25
2023-05-12T13:21:36.753Z,93574.34
2023-05-12T13:26:39.782Z,93579.13
2023-05-12T13:31:41.496Z,93579.66
2023-05-12T13:36:45.232Z,93578.28
2023-05-12T13:41:48.231Z,93573.78
2023-05-12T13:46:49.944Z,93577.41
2023-05-12T13:51:52.897Z,93578.31
2023-05-12T13:56:58.012Z,93571.22
2023-05-12T14:01:59.902Z,93583.75
2023-05-12T14:07:03.114Z,93568.03
2023-05-12T14:12:09.856Z,93555.41
2023-05-12T14:17:11.480Z,93566.97
2023-05-12T14:22:25.530Z,93568.19
2023-05-12T14:27:29.523Z,93567.91
2023-05-12T14:32:31.162Z,93565.16
2023-05-12T14:37:32.848Z,93579.31
2023-05-12T14:42:43.270Z,93579.19
2023-05-12T14:47:45.057Z,93587.06
2023-05-12T14:52:46.650Z,93575.03
2023-05-12T14:57:49.611Z,93578.09
2023-05-12T15:02:51.308Z,93593.53
2023-05-12T15:07:52.889Z,93586.16
2023-05-12T15:12:55.934Z,93579.72
2023-05-12T15:17:57.529Z,93598.84
2023-05-12T15:22:59.271Z,93587.19
2023-05-12T15:28:02.217Z,93585.16
2023-05-12T15:33:04.037Z,93597.19
2023-05-12T15:38:05.818Z,93590.59
2023-05-12T15:43:11.152Z,93593.94
2023-05-12T15:48:12.840Z,93588.66
2023-05-12T15:53:17.975Z,93595.13
2023-05-12T15:58:21.062Z,93605.53
2023-05-12T16:03:23.349Z,93595.75
2023-05-12T16:08:25.218Z,93608.34
2023-05-12T16:13:30.627Z,93609.97
2023-05-12T16:18:32.587Z,93603.91
2023-05-12T16:23:34.260Z,93597.97
2023-05-12T16:28:37.318Z,93591.69
2023-05-12T16:33:39.071Z,93592.28
2023-05-12T16:44:45.692Z,93596.16
2023-05-12T16:49:49.985Z,93606.72
2023-05-12T16:54:51.609Z,93603.91
2023-05-12T17:00:02.145Z,93607.94
2023-05-12T17:05:04.082Z,93606.56
2023-05-12T17:10:06.285Z,93610.41
2023-05-12T17:15:13.332Z,93618.72
2023-05-12T17:20:16.035Z,93632.56
2023-05-12T17:25:21.741Z,93625.72
2023-05-12T17:30:25.794Z,93625.81
2023-05-12T17:35:27.536Z,93640.13
2023-05-12T17:40:31.270Z,93645.41
2023-05-12T17:45:36.677Z,93651.94
2023-05-12T17:50:38.263Z,93661.16
2023-05-12T17:55:39.898Z,93653.06
2023-05-12T18:00:45.201Z,93671.56
2023-05-12T18:05:46.789Z,93659.34
2023-05-12T18:10:50.608Z,93664.72
2023-05-12T18:15:55.856Z,93679.63
2023-05-12T18:20:57.513Z,93685.47
2023-05-12T18:25:59.114Z,93686.09
2023-05-12T18:31:15.098Z,93679.63
2023-05-12T18:36:18.722Z,93688.72
2023-05-12T18:41:27.793Z,93695.41
2023-05-12T18:46:33.157Z,93690.97
2023-05-12T18:51:34.851Z,93694.66
2023-05-12T18:56:36.869Z,93702.28
2023-05-12T19:01:39.988Z,93709.44
2023-05-12T19:06:41.741Z,93704.13
2023-05-12T19:11:43.328Z,93709.47
2023-05-12T19:16:49.028Z,93708.91
2023-05-12T19:27:54.516Z,93714.34
2023-05-12T19:32:59.619Z,93716.13
2023-05-12T19:38:08.742Z,93721.16
2023-05-12T19:43:10.388Z,93731.66
2023-05-12T19:48:23.747Z,93732.16
2023-05-12T19:53:25.267Z,93733.28
2023-05-12T19:58:26.840Z,93729.56
2023-05-12T20:03:29.846Z,93738.66
2023-05-12T20:08:31.424Z,93730.00
2023-05-12T20:13:33.178Z,93727.09
2023-05-12T20:18:36.150Z,93738.13
2023-05-12T20:23:37.706Z,93734.75
2023-05-12T20:28:39.417Z,93738.31
2023-05-12T20:33:42.493Z,93743.13
2023-05-12T20:38:45.586Z,93739.63
2023-05-12T20:43:47.182Z,93742.34
2023-05-12T20:48:51.353Z,93742.69
2023-05-12T20:53:53.304Z,93748.50
2023-05-12T20:58:55.082Z,93753.41
2023-05-12T21:03:58.094Z,93755.13
2023-05-12T21:09:02.782Z,93743.69
2023-05-12T21:14:04.362Z,93759.13
2023-05-12T21:19:07.740Z,93759.19
2023-05-12T21:24:09.441Z,93755.53
2023-05-12T21:29:11.039Z,93761.34
2023-05-12T21:34:16.306Z,93758.06
2023-05-12T21:39:20.895Z,93760.41
2023-05-12T21:44:22.560Z,93756.16
2023-05-12T21:49:34.312Z,93756.09
2023-05-12T21:54:40.023Z,93754.78
2023-05-12T21:59:43.103Z,93755.69
2023-05-12T22:04:48.517Z,93759.81
2023-05-12T22:09:50.156Z,93766.44
2023-05-12T22:20:10.037Z,93766.63
2023-05-12T22:25:14.072Z,93768.94
2023-05-12T22:30:15.662Z,93763.19
2023-05-12T22:35:19.114Z,93757.94
2023-05-12T22:40:20.898Z,93761.66
2023-05-12T22:45:22.656Z,93757.66
2023-05-12T22:50:25.606Z,93754.47
2023-05-12T22:55:27.865Z,93752.50
2023-05-12T23:00:29.512Z,93746.31
2023-05-12T23:05:35.792Z,93741.22
2023-05-12T23:10:40.139Z,93740.03
2023-05-12T23:15:43.065Z,93742.75
2023-05-12T23:20:46.047Z,93738.63
2023-05-12T23:25:55.159Z,93743.16
2023-05-12T23:30:59.496Z,93740.88
2023-05-12T23:36:02.520Z,93736.50
2023-05-12T23:41:04.151Z,93734.53
2023-05-12T23:46:05.750Z,93733.53
2023-05-12T23:51:08.866Z,93731.25
2023-05-12T23:56:10.379Z,93724.66
